createdAt,value
2023-02-02T00:01:56.915Z,95292.66
2023-02-02T00:04:33.311Z,95296.91
2023-02-02T00:07:00.793Z,95277.72
2023-02-02T00:09:31.545Z,95285.66
2023-02-02T00:11:59.969Z,95292.44
2023-02-02T00:14:27.700Z,95290.59
2023-02-02T00:16:56.131Z,95292.88
2023-02-02T00:19:28.119Z,95265.09
2023-02-02T00:21:55.445Z,95263.09
2023-02-02T00:24:23.162Z,95268.50
2023-02-02T00:26:57.683Z,95252.72
2023-02-02T00:29:28.808Z,95242.50
2023-02-02T00:31:56.089Z,95257.56
2023-02-02T00:34:24.521Z,95248.94
2023-02-02T00:36:51.949Z,95252.09
2023-02-02T00:39:22.868Z,95245.66
2023-02-02T00:41:49.881Z,95232.66
2023-02-02T00:44:35.619Z,95259.38
2023-02-02T00:47:03.492Z,95264.22
2023-02-02T00:49:30.605Z,95266.53
2023-02-02T00:51:57.373Z,95238.00
2023-02-02T00:54:24.136Z,95250.75
2023-02-02T00:56:50.921Z,95244.72
2023-02-02T00:59:17.696Z,95257.19
2023-02-02T01:01:44.514Z,95257.38
2023-02-02T01:04:11.316Z,95253.00
2023-02-02T01:06:38.087Z,95244.72
2023-02-02T01:09:05.234Z,95259.03
2023-02-02T01:11:32.138Z,95252.97
2023-02-02T01:13:59.001Z,95254.50
2023-02-02T01:16:25.917Z,95236.50
2023-02-02T01:18:53.070Z,95271.22
2023-02-02T01:21:20.136Z,95272.78
2023-02-02T01:23:47.333Z,95286.81
2023-02-02T01:26:14.959Z,95274.53
2023-02-02T01:28:41.964Z,95274.63
2023-02-02T01:31:18.200Z,95276.22
2023-02-02T01:33:47.828Z,95267.97
2023-02-02T01:36:18.327Z,95251.81
2023-02-02T01:38:46.039Z,95266.13
2023-02-02T01:41:16.833Z,95275.50
2023-02-02T01:43:44.114Z,95279.97
2023-02-02T01:46:19.735Z,95268.00
2023-02-02T01:49:11.762Z,95263.50
2023-02-02T01:51:49.999Z,95267.16
2023-02-02T01:54:23.573Z,95274.78
2023-02-02T01:56:57.797Z,95273.91
2023-02-02T01:59:25.466Z,95270.28
2023-02-02T02:01:52.851Z,95259.91
2023-02-02T02:04:19.673Z,95253.09
2023-02-02T02:06:46.505Z,95265.44
2023-02-02T02:09:13.451Z,95268.59
2023-02-02T02:11:40.554Z,95248.75
2023-02-02T02:14:29.607Z,95252.81
2023-02-02T02:17:23.801Z,95246.34
2023-02-02T02:20:54.051Z,95248.13
2023-02-02T02:24:21.979Z,95241.06
2023-02-02T02:27:22.325Z,95244.63
2023-02-02T02:30:00.732Z,95240.00
2023-02-02T02:33:10.800Z,95230.47
2023-02-02T02:35:59.598Z,95225.44
2023-02-02T02:38:35.513Z,95223.13
2023-02-02T02:41:09.226Z,95215.22
2023-02-02T02:43:44.026Z,95223.34
2023-02-02T02:46:12.677Z,95231.97
2023-02-02T02:48:39.611Z,95227.34
2023-02-02T02:51:55.860Z,95236.00
2023-02-02T02:54:28.351Z,95225.00
2023-02-02T02:57:07.433Z,95224.22
2023-02-02T03:00:07.587Z,95224.47
2023-02-02T03:03:11.948Z,95241.13
2023-02-02T03:05:38.721Z,95245.81
2023-02-02T03:08:22.973Z,95250.56
2023-02-02T03:10:49.897Z,95217.97
2023-02-02T03:13:17.261Z,95227.34
2023-02-02T03:15:45.290Z,95225.91
2023-02-02T03:18:15.901Z,95233.59
2023-02-02T03:20:45.777Z,95243.72
2023-02-02T03:23:13.620Z,95244.31
2023-02-02T03:25:40.882Z,95217.97
2023-02-02T03:28:08.034Z,95247.47
2023-02-02T03:30:35.957Z,95246.50
2023-02-02T03:33:03.299Z,95243.91
2023-02-02T03:35:30.073Z,95242.00
2023-02-02T03:37:57.042Z,95240.25
2023-02-02T03:40:24.115Z,95210.91
2023-02-02T03:42:50.939Z,95245.19
2023-02-02T03:45:18.019Z,95244.63
2023-02-02T03:47:44.814Z,95226.72
2023-02-02T03:50:12.038Z,95238.72
2023-02-02T03:52:38.911Z,95219.53
2023-02-02T03:55:06.862Z,95257.69
2023-02-02T03:57:33.698Z,95223.22
2023-02-02T04:00:00.441Z,95245.75
2023-02-02T04:02:27.344Z,95252.72
2023-02-02T04:04:54.101Z,95247.25
2023-02-02T04:07:20.863Z,95272.19
2023-02-02T04:09:47.600Z,95275.69
2023-02-02T04:12:14.322Z,95273.44
2023-02-02T04:14:41.072Z,95254.44
2023-02-02T04:17:07.809Z,95268.50
2023-02-02T04:19:34.567Z,95261.94
2023-02-02T04:22:01.300Z,95263.09
2023-02-02T04:24:28.070Z,95285.28
2023-02-02T04:26:54.942Z,95260.16
2023-02-02T04:29:21.677Z,95267.84
2023-02-02T04:31:48.524Z,95268.56
2023-02-02T04:34:15.362Z,95254.13
2023-02-02T04:36:42.173Z,95270.72
2023-02-02T04:39:12.026Z,95286.81
2023-02-02T04:41:38.821Z,95267.16
2023-02-02T04:44:06.928Z,95270.72
2023-02-02T04:46:33.704Z,95274.66
2023-02-02T04:49:00.488Z,95267.88
2023-02-02T04:51:27.295Z,95258.06
2023-02-02T04:53:54.040Z,95256.91
2023-02-02T04:56:20.894Z,95262.91
2023-02-02T04:58:47.627Z,95261.75
2023-02-02T05:01:20.130Z,95267.88
2023-02-02T05:03:47.709Z,95270.72
2023-02-02T05:06:16.032Z,95273.06
2023-02-02T05:08:43.524Z,95275.31
2023-02-02T05:11:21.599Z,95281.19
2023-02-02T05:13:54.130Z,95285.66
2023-02-02T05:16:22.346Z,95281.75
2023-02-02T05:18:51.772Z,95284.44
2023-02-02T05:21:19.533Z,95291.69
2023-02-02T05:23:46.651Z,95266.56
2023-02-02T05:26:21.647Z,95283.53
2023-02-02T05:28:49.255Z,95274.50
2023-02-02T05:31:16.308Z,95259.09
2023-02-02T05:33:43.473Z,95270.47
2023-02-02T05:36:10.756Z,95284.91
2023-02-02T05:38:37.785Z,95294.19
2023-02-02T05:41:05.151Z,95267.41
2023-02-02T05:43:33.554Z,95295.19
2023-02-02T05:46:00.903Z,95299.41
2023-02-02T05:48:28.463Z,95284.19
2023-02-02T05:51:18.856Z,95306.69
2023-02-02T05:53:45.875Z,95298.38
2023-02-02T05:56:15.777Z,95301.34
2023-02-02T05:58:44.615Z,95304.97
2023-02-02T06:01:11.656Z,95297.84
2023-02-02T06:03:38.519Z,95298.34
2023-02-02T06:06:07.074Z,95265.28
2023-02-02T06:08:34.104Z,95296.09
2023-02-02T06:11:00.987Z,95301.28
2023-02-02T06:13:27.726Z,95273.97
2023-02-02T06:15:54.542Z,95278.41
2023-02-02T06:18:21.557Z,95285.44
2023-02-02T06:20:48.419Z,95293.34
2023-02-02T06:23:15.207Z,95287.94
2023-02-02T06:25:42.014Z,95295.47
2023-02-02T06:28:08.929Z,95287.66
2023-02-02T06:30:35.708Z,95298.91
2023-02-02T06:33:02.557Z,95299.81
2023-02-02T06:35:29.354Z,95287.56
2023-02-02T06:37:56.101Z,95308.75
2023-02-02T06:40:22.865Z,95303.44
2023-02-02T06:42:57.164Z,95312.00
2023-02-02T06:45:25.047Z,95308.13
2023-02-02T06:47:53.269Z,95307.47
2023-02-02T06:50:20.089Z,95325.47
2023-02-02T06:52:51.325Z,95339.69
2023-02-02T06:55:18.226Z,95330.84
2023-02-02T06:57:45.589Z,95338.00
2023-02-02T07:00:13.435Z,95335.41
2023-02-02T07:02:40.243Z,95315.88
2023-02-02T07:05:07.146Z,95335.41
2023-02-02T07:07:35.192Z,95344.03
2023-02-02T07:10:01.953Z,95316.66
2023-02-02T07:12:28.758Z,95339.69
2023-02-02T07:14:55.765Z,95337.44
2023-02-02T07:17:22.537Z,95334.69
2023-02-02T07:19:49.300Z,95355.25
2023-02-02T07:22:16.280Z,95349.31
2023-02-02T07:24:43.026Z,95342.31
2023-02-02T07:27:09.764Z,95349.66
2023-02-02T07:29:36.517Z,95340.75
2023-02-02T07:32:03.374Z,95346.94
2023-02-02T07:34:30.117Z,95341.59
2023-02-02T07:36:58.349Z,95352.41
2023-02-02T07:39:25.131Z,95322.19
2023-02-02T07:41:51.936Z,95325.72
2023-02-02T07:44:18.950Z,95321.53
2023-02-02T07:46:47.508Z,95345.69
2023-02-02T07:49:16.850Z,95344.00
2023-02-02T07:51:47.704Z,95334.16
2023-02-02T07:54:15.210Z,95346.88
2023-02-02T07:56:41.955Z,95338.94
2023-02-02T07:59:11.230Z,95342.13
2023-02-02T08:01:38.157Z,95339.28
2023-02-02T08:04:05.199Z,95343.78
2023-02-02T08:06:37.585Z,95353.91
2023-02-02T08:09:08.194Z,95353.28
2023-02-02T08:11:37.270Z,95339.78
2023-02-02T08:14:05.717Z,95366.56
2023-02-02T08:16:34.057Z,95363.94
2023-02-02T08:19:01.140Z,95368.09
2023-02-02T08:21:27.969Z,95353.19
2023-02-02T08:23:55.102Z,95366.78
2023-02-02T08:26:28.299Z,95348.75
2023-02-02T08:29:01.654Z,95373.88
2023-02-02T08:31:42.017Z,95369.41
2023-02-02T08:34:09.426Z,95332.16
2023-02-02T08:36:36.509Z,95366.53
2023-02-02T08:39:11.073Z,95356.72
2023-02-02T08:41:38.030Z,95374.28
2023-02-02T08:44:11.397Z,95360.41
2023-02-02T08:46:38.495Z,95367.03
2023-02-02T08:49:05.385Z,95382.88
2023-02-02T08:51:32.237Z,95394.63
2023-02-02T08:53:59.009Z,95392.63
2023-02-02T08:56:25.766Z,95399.06
2023-02-02T08:59:03.150Z,95398.09
2023-02-02T09:01:32.576Z,95391.50
2023-02-02T09:04:06.404Z,95385.22
2023-02-02T09:06:39.010Z,95392.22
2023-02-02T09:09:09.281Z,95386.88
2023-02-02T09:11:36.965Z,95405.03
2023-02-02T09:14:06.379Z,95407.88
2023-02-02T09:16:35.128Z,95412.50
2023-02-02T09:19:02.503Z,95393.56
2023-02-02T09:21:29.449Z,95409.97
2023-02-02T09:23:56.486Z,95404.63
2023-02-02T09:26:27.492Z,95430.84
2023-02-02T09:29:04.173Z,95405.72
2023-02-02T09:31:35.248Z,95440.44
2023-02-02T09:34:04.522Z,95420.31
2023-02-02T09:36:31.835Z,95422.06
2023-02-02T09:38:59.214Z,95432.75
2023-02-02T09:41:38.061Z,95459.53
2023-02-02T09:44:16.627Z,95466.44
2023-02-02T09:47:04.588Z,95473.69
2023-02-02T09:49:53.457Z,95474.75
2023-02-02T09:52:28.694Z,95460.25
2023-02-02T09:55:04.769Z,95470.28
2023-02-02T09:57:39.510Z,95480.53
2023-02-02T10:00:25.102Z,95457.19
2023-02-02T10:02:59.872Z,95455.75
2023-02-02T10:05:49.009Z,95464.09
2023-02-02T10:08:34.684Z,95452.91
2023-02-02T10:11:25.312Z,95474.50
2023-02-02T10:13:54.955Z,95448.28
2023-02-02T10:16:23.699Z,95468.69
2023-02-02T10:19:07.042Z,95474.25
2023-02-02T10:22:04.847Z,95474.00
2023-02-02T10:24:32.778Z,95461.81
2023-02-02T10:27:06.229Z,95472.00
2023-02-02T10:29:50.327Z,95471.56
2023-02-02T10:32:28.498Z,95461.44
2023-02-02T10:35:14.555Z,95473.16
2023-02-02T10:37:56.617Z,95452.16
2023-02-02T10:40:47.625Z,95468.13
2023-02-02T10:43:47.904Z,95460.53
2023-02-02T10:46:49.212Z,95460.16
2023-02-02T10:49:31.351Z,95475.84
2023-02-02T10:52:18.933Z,95468.28
2023-02-02T10:55:04.170Z,95473.44
2023-02-02T10:57:44.287Z,95478.91
2023-02-02T11:00:23.986Z,95476.69
2023-02-02T11:02:52.191Z,95452.25
2023-02-02T11:05:47.573Z,95474.31
2023-02-02T11:08:28.450Z,95466.47
2023-02-02T11:10:58.485Z,95453.34
2023-02-02T11:13:31.777Z,95456.06
2023-02-02T11:16:16.540Z,95452.25
2023-02-02T11:18:45.001Z,95422.66
2023-02-02T11:21:33.019Z,95453.63
2023-02-02T11:24:26.697Z,95470.81
2023-02-02T11:27:14.332Z,95459.09
2023-02-02T11:29:42.085Z,95465.38
2023-02-02T11:32:29.739Z,95464.28
2023-02-02T11:35:08.596Z,95463.22
2023-02-02T11:37:37.959Z,95464.53
2023-02-02T11:40:38.806Z,95457.03
2023-02-02T11:43:27.296Z,95467.75
2023-02-02T11:46:04.497Z,95455.19
2023-02-02T11:48:38.339Z,95443.75
2023-02-02T11:51:08.145Z,95456.38
2023-02-02T11:53:43.074Z,95450.66
2023-02-02T11:56:20.672Z,95435.69
2023-02-02T11:58:56.727Z,95453.97
2023-02-02T12:01:41.402Z,95433.41
2023-02-02T12:04:17.357Z,95444.66
2023-02-02T12:06:45.286Z,95446.53
2023-02-02T12:09:23.702Z,95443.25
2023-02-02T12:12:57.112Z,95445.84
2023-02-02T12:15:48.411Z,95437.63
2023-02-02T12:18:38.294Z,95446.75
2023-02-02T12:21:08.051Z,95439.94
2023-02-02T12:24:11.587Z,95446.63
2023-02-02T12:26:42.105Z,95420.44
2023-02-02T12:29:40.964Z,95425.53
2023-02-02T12:33:01.710Z,95432.91
2023-02-02T12:36:10.842Z,95443.81
2023-02-02T12:39:18.201Z,95444.59
2023-02-02T12:42:17.100Z,95435.47
2023-02-02T12:44:51.196Z,95449.69
2023-02-02T12:47:33.819Z,95445.84
2023-02-02T12:50:23.775Z,95441.84
2023-02-02T12:53:17.198Z,95436.13
2023-02-02T12:56:04.928Z,95435.53
2023-02-02T12:58:46.524Z,95441.53
2023-02-02T13:01:44.204Z,95442.25
2023-02-02T13:04:22.477Z,95449.38
2023-02-02T13:07:10.517Z,95443.31
2023-02-02T13:10:32.537Z,95434.28
2023-02-02T13:13:37.705Z,95434.50
2023-02-02T13:16:14.450Z,95444.84
2023-02-02T13:19:07.815Z,95435.34
2023-02-02T13:21:36.802Z,95409.84
2023-02-02T13:24:06.058Z,95395.69
2023-02-02T13:26:39.121Z,95426.00
2023-02-02T13:29:12.102Z,95435.00
2023-02-02T13:31:52.074Z,95441.53
2023-02-02T13:34:35.273Z,95419.19
2023-02-02T13:37:17.739Z,95440.53
2023-02-02T13:40:25.909Z,95441.41
2023-02-02T13:43:23.031Z,95442.44
2023-02-02T13:46:12.048Z,95452.91
2023-02-02T13:49:00.502Z,95449.88
2023-02-02T13:52:08.067Z,95464.84
2023-02-02T13:55:12.749Z,95457.31
2023-02-02T13:58:04.649Z,95462.19
2023-02-02T14:00:39.306Z,95466.06
2023-02-02T14:03:39.031Z,95455.81
2023-02-02T14:06:15.012Z,95470.78
2023-02-02T14:09:00.861Z,95470.19
2023-02-02T14:11:42.500Z,95477.31
2023-02-02T14:14:38.301Z,95483.97
2023-02-02T14:17:14.143Z,95490.00
2023-02-02T14:19:55.164Z,95493.31
2023-02-02T14:22:51.860Z,95482.69
2023-02-02T14:25:33.839Z,95504.31
2023-02-02T14:28:03.897Z,95483.66
2023-02-02T14:30:38.712Z,95506.00
2023-02-02T14:33:26.238Z,95507.16
2023-02-02T14:36:01.457Z,95530.66
2023-02-02T14:38:50.112Z,95518.81
2023-02-02T14:42:22.329Z,95526.41
2023-02-02T14:45:11.307Z,95530.56
2023-02-02T14:48:14.174Z,95529.00
2023-02-02T14:50:46.778Z,95525.69
2023-02-02T14:53:13.411Z,95528.19
2023-02-02T14:56:06.399Z,95527.38
2023-02-02T14:58:52.724Z,95549.88
2023-02-02T15:01:25.260Z,95557.34
2023-02-02T15:04:01.223Z,95544.66
2023-02-02T15:06:35.196Z,95552.47
2023-02-02T15:09:20.321Z,95559.13
2023-02-02T15:12:01.044Z,95555.78
2023-02-02T15:14:50.821Z,95556.03
2023-02-02T15:17:39.789Z,95550.44
2023-02-02T15:20:44.496Z,95557.53
2023-02-02T15:23:29.527Z,95556.72
2023-02-02T15:26:15.375Z,95551.72
2023-02-02T15:28:51.119Z,95565.53
2023-02-02T15:31:37.117Z,95576.94
2023-02-02T15:34:42.841Z,95580.72
2023-02-02T15:37:17.770Z,95563.53
2023-02-02T15:39:52.476Z,95572.91
2023-02-02T15:42:53.206Z,95544.66
2023-02-02T15:45:48.149Z,95579.72
2023-02-02T15:48:30.816Z,95572.34
2023-02-02T15:51:05.321Z,95571.47
2023-02-02T15:53:41.164Z,95592.25
2023-02-02T15:56:23.232Z,95587.28
2023-02-02T15:58:53.843Z,95589.28
2023-02-02T16:01:24.064Z,95588.66
2023-02-02T16:04:14.841Z,95596.59
2023-02-02T16:06:42.157Z,95601.81
2023-02-02T16:09:24.147Z,95606.28
2023-02-02T16:11:52.294Z,95610.63
2023-02-02T16:14:19.541Z,95617.91
2023-02-02T16:16:49.620Z,95608.53
2023-02-02T16:19:24.212Z,95618.38
2023-02-02T16:22:15.997Z,95606.16
2023-02-02T16:24:54.571Z,95609.81
2023-02-02T16:27:25.291Z,95609.44
2023-02-02T16:29:52.763Z,95599.47
2023-02-02T16:32:28.346Z,95608.00
2023-02-02T16:34:55.890Z,95621.41
2023-02-02T16:37:29.681Z,95623.19
2023-02-02T16:40:15.036Z,95624.47
2023-02-02T16:42:41.813Z,95600.31
2023-02-02T16:45:35.304Z,95636.16
2023-02-02T16:48:28.517Z,95623.38
2023-02-02T16:51:27.367Z,95620.34
2023-02-02T16:54:02.613Z,95654.22
2023-02-02T16:56:38.200Z,95658.72
2023-02-02T16:59:33.696Z,95661.00
2023-02-02T17:02:28.352Z,95657.38
2023-02-02T17:05:30.480Z,95662.88
2023-02-02T17:08:08.037Z,95666.66
2023-02-02T17:10:37.222Z,95679.97
2023-02-02T17:13:32.678Z,95695.94
2023-02-02T17:16:00.682Z,95686.88
2023-02-02T17:18:27.465Z,95688.22
2023-02-02T17:21:04.274Z,95697.72
2023-02-02T17:23:32.245Z,95705.03
2023-02-02T17:25:59.509Z,95686.50
2023-02-02T17:28:27.724Z,95694.84
2023-02-02T17:31:00.796Z,95717.44
2023-02-02T17:33:28.293Z,95721.59
2023-02-02T17:35:56.536Z,95719.94
2023-02-02T17:38:29.876Z,95721.59
2023-02-02T17:41:01.614Z,95727.75
2023-02-02T17:43:32.817Z,95715.47
2023-02-02T17:46:00.340Z,95721.94
2023-02-02T17:48:27.145Z,95701.94
2023-02-02T17:50:53.870Z,95705.03
2023-02-02T17:53:22.319Z,95722.66
2023-02-02T17:55:50.441Z,95721.94
2023-02-02T17:58:18.179Z,95699.53
2023-02-02T18:00:54.332Z,95704.44
2023-02-02T18:03:30.926Z,95721.69
2023-02-02T18:06:01.796Z,95728.78
2023-02-02T18:08:30.441Z,95715.25
2023-02-02T18:10:57.857Z,95731.34
2023-02-02T18:13:24.635Z,95730.66
2023-02-02T18:15:52.970Z,95726.91
2023-02-02T18:18:20.015Z,95734.13
2023-02-02T18:20:49.339Z,95723.72
2023-02-02T18:23:18.520Z,95721.53
2023-02-02T18:25:45.518Z,95725.25
2023-02-02T18:28:15.249Z,95730.06
2023-02-02T18:30:43.622Z,95728.41
2023-02-02T18:33:12.071Z,95743.94
2023-02-02T18:35:46.319Z,95742.34
2023-02-02T18:38:14.701Z,95732.78
2023-02-02T18:40:42.230Z,95724.22
2023-02-02T18:43:09.365Z,95736.13
2023-02-02T18:45:36.610Z,95716.50
2023-02-02T18:48:03.592Z,95694.66
2023-02-02T18:50:38.732Z,95722.78
2023-02-02T18:53:06.611Z,95721.63
2023-02-02T18:55:33.373Z,95719.44
2023-02-02T18:58:00.174Z,95738.19
2023-02-02T19:00:27.661Z,95709.75
2023-02-02T19:02:54.871Z,95723.94
2023-02-02T19:05:40.135Z,95745.28
2023-02-02T19:08:06.938Z,95752.19
2023-02-02T19:10:33.736Z,95756.44
2023-02-02T19:13:20.508Z,95757.31
2023-02-02T19:15:50.185Z,95762.50
2023-02-02T19:18:24.221Z,95748.84
2023-02-02T19:20:52.628Z,95760.72
2023-02-02T19:23:25.045Z,95755.41
2023-02-02T19:25:55.019Z,95762.63
2023-02-02T19:28:31.120Z,95763.22
2023-02-02T19:31:05.378Z,95764.69
2023-02-02T19:33:42.402Z,95769.69
2023-02-02T19:36:18.974Z,95767.72
2023-02-02T19:38:46.705Z,95738.00
2023-02-02T19:41:25.790Z,95748.84
2023-02-02T19:43:58.926Z,95740.72
2023-02-02T19:46:27.732Z,95750.50
2023-02-02T19:49:05.618Z,95747.91
2023-02-02T19:51:45.565Z,95737.41
2023-02-02T19:54:26.052Z,95748.84
2023-02-02T19:56:56.503Z,95746.44
2023-02-02T19:59:27.057Z,95741.31
2023-02-02T20:01:55.326Z,95738.63
2023-02-02T20:04:22.621Z,95741.13
2023-02-02T20:06:59.053Z,95750.94
2023-02-02T20:09:34.271Z,95760.53
2023-02-02T20:12:01.022Z,95751.88
2023-02-02T20:14:33.254Z,95757.09
2023-02-02T20:17:11.908Z,95769.69
2023-02-02T20:19:42.044Z,95776.06
2023-02-02T20:22:28.504Z,95776.06
2023-02-02T20:24:57.902Z,95758.25
2023-02-02T20:27:28.590Z,95774.47
2023-02-02T20:30:01.790Z,95767.00
2023-02-02T20:32:40.319Z,95772.44
2023-02-02T20:35:26.812Z,95775.97
2023-02-02T20:37:55.820Z,95769.28
2023-02-02T20:40:29.342Z,95770.94
2023-02-02T20:42:58.384Z,95785.03
2023-02-02T20:45:27.207Z,95785.97
2023-02-02T20:47:53.952Z,95781.78
2023-02-02T20:50:22.135Z,95782.63
2023-02-02T20:52:51.061Z,95770.53
2023-02-02T20:55:18.277Z,95760.91
2023-02-02T20:57:45.181Z,95770.22
2023-02-02T21:00:16.601Z,95761.13
2023-02-02T21:02:43.552Z,95745.94
2023-02-02T21:05:10.566Z,95758.53
2023-02-02T21:07:37.385Z,95757.16
2023-02-02T21:10:05.186Z,95759.88
2023-02-02T21:12:32.213Z,95761.47
2023-02-02T21:14:59.013Z,95735.59
2023-02-02T21:17:25.855Z,95746.34
2023-02-02T21:19:52.709Z,95770.50
2023-02-02T21:22:19.514Z,95771.97
2023-02-02T21:24:46.279Z,95762.16
2023-02-02T21:27:13.442Z,95737.34
2023-02-02T21:29:40.302Z,95776.97
2023-02-02T21:32:07.162Z,95787.50
2023-02-02T21:34:34.012Z,95759.03
2023-02-02T21:37:00.839Z,95775.72
2023-02-02T21:39:30.533Z,95805.75
2023-02-02T21:42:09.688Z,95800.94
2023-02-02T21:44:58.151Z,95774.66
2023-02-02T21:47:37.536Z,95794.91
2023-02-02T21:50:22.358Z,95801.47
2023-02-02T21:52:49.165Z,95789.97
2023-02-02T21:55:37.438Z,95800.63
2023-02-02T21:58:23.077Z,95801.81
2023-02-02T22:00:50.854Z,95795.53
2023-02-02T22:03:38.411Z,95804.09
2023-02-02T22:06:05.099Z,95795.34
2023-02-02T22:08:37.234Z,95795.75
2023-02-02T22:11:04.357Z,95783.25
2023-02-02T22:13:35.567Z,95802.84
2023-02-02T22:16:02.578Z,95808.78
2023-02-02T22:18:29.980Z,95807.75
2023-02-02T22:20:56.901Z,95813.28
2023-02-02T22:23:27.383Z,95790.88
2023-02-02T22:25:59.189Z,95807.97
2023-02-02T22:28:32.831Z,95800.78
2023-02-02T22:31:00.769Z,95792.94
2023-02-02T22:33:27.918Z,95788.13
2023-02-02T22:35:54.732Z,95797.81
2023-02-02T22:38:24.534Z,95756.97
2023-02-02T22:40:52.748Z,95795.31
2023-02-02T22:43:21.146Z,95804.19
2023-02-02T22:45:48.438Z,95811.50
2023-02-02T22:48:16.817Z,95807.34
2023-02-02T22:50:43.829Z,95813.69
2023-02-02T22:53:10.935Z,95776.16
2023-02-02T22:55:37.787Z,95773.03
2023-02-02T22:58:04.592Z,95788.25
2023-02-02T23:00:33.254Z,95802.84
2023-02-02T23:03:00.712Z,95802.53
2023-02-02T23:05:28.509Z,95785.13
2023-02-02T23:07:56.440Z,95731.31
2023-02-02T23:10:26.988Z,95786.69
2023-02-02T23:12:58.575Z,95794.50
2023-02-02T23:15:25.684Z,95787.63
2023-02-02T23:17:52.817Z,95773.63
2023-02-02T23:20:20.066Z,95798.66
2023-02-02T23:22:46.852Z,95783.03
2023-02-02T23:25:14.776Z,95786.78
2023-02-02T23:27:41.897Z,95783.13
2023-02-02T23:30:11.054Z,95787.00
2023-02-02T23:32:37.825Z,95789.38
2023-02-02T23:35:07.815Z,95790.97
2023-02-02T23:37:36.122Z,95772.19
2023-02-02T23:40:03.205Z,95785.31
2023-02-02T23:42:30.016Z,95790.97
2023-02-02T23:44:56.943Z,95773.03
2023-02-02T23:47:23.978Z,95787.91
2023-02-02T23:49:50.889Z,95771.03
2023-02-02T23:52:18.413Z,95780.75
2023-02-02T23:54:45.328Z,95787.63
2023-02-02T23:57:12.137Z,95781.88
2023-02-02T23:59:38.889Z,95788.88
